Time;durP1;ratioP1;P1;durP2;ratioP2;P2;SDS_P1;SDS_P2;PMS_P1;PMS_P2;Temp;Humidity;BMP_temperature;BMP_pressure;BME280_temperature;BME280_humidity;BME280_pressure;Samples;Min_cycle;Max_cycle;Signal;HPM_P1;HPM_P2
2020/12/19 00:02:17;;;;;;;5.10;4.20;;;15.80;56.90;;;;;;4851352;29;20096;-78
2020/12/19 00:04:42;;;;;;;4.63;3.35;;;15.90;57.00;;;;;;4844458;29;20367;-78
2020/12/19 00:07:09;;;;;;;4.85;3.60;;;15.80;57.00;;;;;;4844000;29;20125;-77
2020/12/19 00:09:35;;;;;;;5.80;4.00;;;15.80;57.00;;;;;;4854063;29;20064;-77
2020/12/19 00:12:01;;;;;;;5.10;3.50;;;15.80;57.00;;;;;;4846302;29;20054;-78
2020/12/19 00:14:27;;;;;;;5.43;4.03;;;15.80;57.00;;;;;;4862806;29;20121;-79
2020/12/19 00:16:53;;;;;;;4.72;3.63;;;15.80;57.10;;;;;;4855155;29;20070;-77
2020/12/19 00:19:39;;;;;;;7.05;4.78;;;15.80;57.10;;;;;;4844501;29;20060;-77
2020/12/19 00:22:06;;;;;;;4.50;3.85;;;15.70;57.10;;;;;;4847645;29;20050;-77
2020/12/19 00:24:52;;;;;;;7.93;4.50;;;15.70;57.10;;;;;;4852693;29;20467;-77
2020/12/19 00:27:18;;;;;;;5.47;4.28;;;15.70;57.10;;;;;;4865796;29;20113;-78
2020/12/19 00:29:47;;;;;;;5.15;4.65;;;15.70;57.00;;;;;;4866053;29;20045;-79
2020/12/19 00:32:12;;;;;;;5.40;4.85;;;15.70;57.00;;;;;;4875597;29;20433;-77
2020/12/19 00:34:38;;;;;;;5.05;4.40;;;15.70;57.00;;;;;;4868550;29;20121;-77
2020/12/19 00:37:04;;;;;;;5.47;4.53;;;15.70;57.00;;;;;;4865745;29;20053;-78
2020/12/19 00:39:30;;;;;;;5.05;4.05;;;15.70;56.90;;;;;;4865513;29;20082;-77
2020/12/19 00:41:56;;;;;;;5.30;4.00;;;15.70;56.90;;;;;;4866039;29;20045;-77
2020/12/19 00:44:22;;;;;;;4.93;4.00;;;15.70;56.90;;;;;;4865815;29;20046;-79
2020/12/19 00:46:51;;;;;;;6.40;4.93;;;15.70;56.90;;;;;;4865636;29;20126;-78
2020/12/19 00:49:18;;;;;;;5.35;4.47;;;15.70;56.80;;;;;;4866175;29;20049;-79
2020/12/19 00:51:44;;;;;;;5.45;4.22;;;15.70;56.90;;;;;;4865524;29;20053;-77
2020/12/19 00:54:10;;;;;;;5.72;4.43;;;15.70;56.90;;;;;;4865716;29;20137;-79
2020/12/19 00:56:41;;;;;;;5.68;5.07;;;15.70;56.80;;;;;;4865850;29;20053;-77
2020/12/19 00:59:07;;;;;;;6.18;5.10;;;15.70;56.80;;;;;;4865486;29;20059;-77
2020/12/19 01:01:53;;;;;;;5.35;4.53;;;15.60;56.80;;;;;;4867325;29;20049;-79
2020/12/19 01:04:39;;;;;;;6.60;4.70;;;15.60;56.80;;;;;;4895947;29;20124;-77
2020/12/19 01:07:24;;;;;;;6.65;5.05;;;15.60;56.90;;;;;;4896328;29;20056;-79
2020/12/19 01:09:50;;;;;;;6.45;4.97;;;15.60;56.80;;;;;;4884275;29;20053;-78
2020/12/19 01:12:16;;;;;;;5.97;4.70;;;15.60;56.80;;;;;;4868145;29;20084;-79
2020/12/19 01:14:42;;;;;;;6.95;5.57;;;15.60;56.70;;;;;;4865330;29;20420;-76
2020/12/19 01:17:08;;;;;;;5.32;4.57;;;15.60;56.70;;;;;;4864734;29;20175;-77
2020/12/19 01:19:33;;;;;;;6.18;4.72;;;15.60;56.70;;;;;;4865355;29;20053;-77
2020/12/19 01:21:59;;;;;;;6.78;4.97;;;15.60;56.80;;;;;;4865099;29;20125;-77
2020/12/19 01:24:25;;;;;;;5.43;4.75;;;15.60;56.80;;;;;;4865208;29;20105;-77
2020/12/19 01:26:51;;;;;;;6.45;5.07;;;15.50;56.80;;;;;;4864704;29;20470;-78
2020/12/19 01:29:17;;;;;;;7.22;5.38;;;15.50;56.80;;;;;;4864860;29;20124;-76
2020/12/19 01:31:42;;;;;;;5.90;5.10;;;15.50;56.90;;;;;;4871448;29;20065;-77
2020/12/19 01:34:28;;;;;;;5.47;4.97;;;15.50;56.90;;;;;;4888442;29;20524;-77
2020/12/19 01:37:16;;;;;;;6.47;4.85;;;15.50;56.90;;;;;;4864400;29;20064;-78
2020/12/19 01:39:41;;;;;;;6.53;4.65;;;15.50;56.90;;;;;;4864455;29;20054;-78
2020/12/19 01:42:08;;;;;;;7.15;5.47;;;15.50;56.90;;;;;;4864362;29;20069;-77
2020/12/19 01:44:33;;;;;;;6.32;5.30;;;15.50;56.90;;;;;;4864510;29;20494;-77
2020/12/19 01:47:01;;;;;;;8.45;5.03;;;15.50;56.90;;;;;;4864839;29;20049;-77
2020/12/19 01:49:30;;;;;;;7.65;5.03;;;15.50;56.90;;;;;;4865234;29;20057;-76
2020/12/19 01:51:59;;;;;;;6.57;4.75;;;15.50;56.90;;;;;;4864832;29;20052;-78
2020/12/19 01:54:29;;;;;;;7.60;5.38;;;15.40;56.80;;;;;;4864854;29;20054;-77
2020/12/19 01:56:56;;;;;;;6.55;5.43;;;15.40;56.80;;;;;;4864732;29;20128;-78
2020/12/19 01:59:24;;;;;;;6.10;5.07;;;15.50;56.80;;;;;;4864433;29;20057;-77
2020/12/19 02:02:11;;;;;;;5.53;4.85;;;15.50;56.80;;;;;;4863750;29;20064;-77
2020/12/19 02:04:37;;;;;;;6.40;5.07;;;15.40;56.80;;;;;;4864719;29;20045;-76
2020/12/19 02:07:05;;;;;;;5.68;5.07;;;15.40;56.80;;;;;;4863799;29;20463;-79
2020/12/19 02:09:37;;;;;;;6.00;4.60;;;15.40;56.80;;;;;;4865281;29;20140;-77
2020/12/19 02:12:04;;;;;;;5.28;4.40;;;15.40;56.80;;;;;;4864458;29;20460;-77
2020/12/19 02:14:31;;;;;;;6.72;5.07;;;15.40;56.80;;;;;;4863994;29;20255;-79
2020/12/19 02:17:02;;;;;;;5.75;5.15;;;15.40;56.90;;;;;;4864457;29;20132;-76
2020/12/19 02:19:30;;;;;;;6.78;5.13;;;15.40;56.90;;;;;;4862777;29;20077;-77
2020/12/19 02:21:59;;;;;;;5.85;4.72;;;15.40;56.90;;;;;;4864163;29;20086;-77
2020/12/19 02:24:25;;;;;;;6.90;5.28;;;15.40;56.90;;;;;;4864355;29;20062;-77
2020/12/19 02:26:53;;;;;;;7.97;5.50;;;15.40;56.90;;;;;;4863824;29;20068;-77
2020/12/19 02:29:20;;;;;;;6.30;5.55;;;15.40;56.90;;;;;;4863736;29;20344;-77
2020/12/19 02:31:47;;;;;;;6.18;5.47;;;15.40;56.90;;;;;;4863143;29;20041;-77
2020/12/19 02:34:13;;;;;;;6.30;5.28;;;15.40;56.90;;;;;;4864188;29;20402;-77
2020/12/19 02:36:40;;;;;;;6.35;5.20;;;15.40;56.90;;;;;;4863945;29;20064;-77
2020/12/19 02:39:25;;;;;;;6.68;5.82;;;15.40;56.90;;;;;;4863011;29;20053;-78
2020/12/19 02:41:51;;;;;;;7.75;5.97;;;15.40;57.00;;;;;;4878985;29;20068;-78
2020/12/19 02:44:37;;;;;;;8.05;5.95;;;15.40;57.00;;;;;;4881583;29;20049;-76
2020/12/19 02:47:03;;;;;;;6.78;6.07;;;15.40;57.00;;;;;;4873918;29;20486;-77
2020/12/19 02:49:29;;;;;;;6.75;5.60;;;15.40;56.90;;;;;;4863186;29;20060;-76
2020/12/19 02:51:55;;;;;;;7.13;5.93;;;15.40;56.90;;;;;;4863433;29;20049;-76
2020/12/19 02:54:21;;;;;;;7.32;5.85;;;15.40;56.90;;;;;;4863444;29;20053;-78
2020/12/19 02:56:46;;;;;;;6.93;6.22;;;15.30;56.90;;;;;;4863347;29;20089;-77
2020/12/19 02:59:15;;;;;;;6.03;5.43;;;15.30;56.90;;;;;;4863079;29;20136;-79
2020/12/19 03:01:41;;;;;;;8.05;5.93;;;15.30;56.90;;;;;;4869750;29;20045;-78
2020/12/19 03:04:07;;;;;;;8.05;7.05;;;15.30;56.90;;;;;;4882408;29;20049;-78
2020/12/19 03:06:33;;;;;;;6.88;6.18;;;15.30;56.90;;;;;;4881779;29;20053;-78
2020/12/19 03:08:59;;;;;;;8.02;6.57;;;15.30;56.90;;;;;;4877206;29;20451;-77
2020/12/19 03:11:45;;;;;;;8.68;6.97;;;15.30;56.90;;;;;;4862489;29;20053;-78
2020/12/19 03:14:11;;;;;;;7.93;6.60;;;15.30;56.90;;;;;;4863511;29;20085;-78
2020/12/19 03:16:37;;;;;;;6.80;6.10;;;15.30;56.90;;;;;;4862984;29;20125;-77
2020/12/19 03:19:03;;;;;;;8.48;6.80;;;15.30;56.90;;;;;;4862793;29;20049;-78
2020/12/19 03:21:29;;;;;;;8.25;6.55;;;15.30;56.90;;;;;;4863176;29;20092;-80
2020/12/19 03:23:54;;;;;;;7.85;6.90;;;15.30;56.90;;;;;;4863022;29;20392;-78
2020/12/19 03:26:20;;;;;;;8.05;7.00;;;15.30;56.90;;;;;;4862995;29;20181;-76
2020/12/19 03:28:46;;;;;;;8.57;7.55;;;15.30;56.90;;;;;;4862973;29;20101;-77
2020/12/19 03:31:12;;;;;;;8.80;7.63;;;15.30;56.90;;;;;;4853312;29;20479;-78
2020/12/19 03:33:58;;;;;;;9.65;7.85;;;15.30;56.90;;;;;;4840293;29;20064;-78
2020/12/19 03:36:44;;;;;;;8.50;7.00;;;15.30;56.90;;;;;;4843159;29;20057;-78
2020/12/19 03:39:09;;;;;;;10.40;7.53;;;15.30;56.80;;;;;;4863020;29;20048;-77
2020/12/19 03:41:35;;;;;;;9.15;7.40;;;15.30;56.80;;;;;;4862949;29;20069;-77
2020/12/19 03:44:21;;;;;;;8.43;7.30;;;15.30;56.80;;;;;;4861689;29;20090;-76
2020/12/19 03:46:48;;;;;;;8.82;7.47;;;15.30;56.80;;;;;;4862743;29;20102;-78
2020/12/19 03:49:13;;;;;;;8.95;7.20;;;15.30;56.80;;;;;;4862715;29;20388;-79
2020/12/19 03:51:39;;;;;;;9.65;7.82;;;15.30;56.80;;;;;;4861806;29;20451;-77
2020/12/19 03:54:25;;;;;;;8.85;7.65;;;15.30;56.80;;;;;;4846336;29;20369;-78
2020/12/19 03:56:51;;;;;;;7.47;6.68;;;15.30;56.80;;;;;;4862501;29;20049;-77
2020/12/19 03:59:36;;;;;;;8.82;7.75;;;15.30;56.80;;;;;;4848975;29;20061;-76
2020/12/19 04:02:02;;;;;;;8.65;7.65;;;15.30;56.80;;;;;;4846622;29;20046;-77
2020/12/19 04:04:28;;;;;;;9.38;7.65;;;15.30;56.80;;;;;;4847666;29;20049;-78
2020/12/19 04:07:14;;;;;;;8.65;7.53;;;15.30;56.80;;;;;;4849478;29;20076;-77
2020/12/19 04:10:00;;;;;;;7.97;6.88;;;15.30;56.70;;;;;;4861626;29;20050;-78
2020/12/19 04:12:26;;;;;;;8.65;7.32;;;15.30;56.80;;;;;;4862739;29;20042;-80
2020/12/19 04:14:52;;;;;;;9.82;7.90;;;15.30;56.80;;;;;;4862675;29;20124;-77
2020/12/19 04:17:18;;;;;;;8.68;7.30;;;15.30;56.80;;;;;;4844389;29;20042;-78
2020/12/19 04:20:09;;;;;;;8.35;7.25;;;15.30;56.80;;;;;;4833822;29;20471;-78
2020/12/19 04:22:35;;;;;;;10.30;7.38;;;15.30;56.80;;;;;;4839369;29;20456;-76
2020/12/19 04:25:02;;;;;;;9.68;7.50;;;15.30;56.80;;;;;;4857164;29;20073;-77
2020/12/19 04:27:28;;;;;;;9.43;7.75;;;15.30;56.80;;;;;;4865204;29;20329;-79
2020/12/19 04:29:53;;;;;;;9.30;7.47;;;15.30;56.80;;;;;;4862844;29;20063;-77
2020/12/19 04:32:40;;;;;;;9.07;7.32;;;15.20;56.80;;;;;;4861611;29;20061;-77
2020/12/19 04:35:06;;;;;;;9.18;7.63;;;15.30;56.80;;;;;;4862485;29;20049;-79
2020/12/19 04:37:32;;;;;;;10.05;7.97;;;15.30;56.80;;;;;;4862632;29;20054;-77
2020/12/19 04:39:58;;;;;;;9.23;8.00;;;15.30;56.80;;;;;;4868555;29;20104;-79
2020/12/19 04:42:44;;;;;;;8.32;7.15;;;15.20;56.70;;;;;;4879408;29;20077;-78
2020/12/19 04:45:30;;;;;;;9.95;7.45;;;15.30;56.80;;;;;;4852494;29;20080;-79
2020/12/19 04:47:57;;;;;;;8.52;7.68;;;15.30;56.90;;;;;;4844712;29;20050;-78
2020/12/19 04:50:25;;;;;;;9.52;7.35;;;15.30;56.80;;;;;;4844584;29;20409;-79
2020/12/19 04:52:50;;;;;;;9.68;7.20;;;15.20;56.70;;;;;;4844056;29;20042;-78
2020/12/19 04:55:36;;;;;;;10.20;7.43;;;15.30;56.80;;;;;;4850577;29;20053;-78
2020/12/19 04:58:02;;;;;;;8.00;7.05;;;15.30;56.90;;;;;;4855141;29;20056;-78
2020/12/19 05:00:48;;;;;;;9.25;7.72;;;15.30;56.90;;;;;;4874224;29;20060;-77
2020/12/19 05:03:16;;;;;;;8.13;6.82;;;15.20;56.80;;;;;;4862330;29;20058;-78
2020/12/19 05:06:03;;;;;;;9.68;7.70;;;15.20;56.80;;;;;;4861534;29;20061;-77
2020/12/19 05:08:49;;;;;;;9.05;7.93;;;15.30;56.90;;;;;;4864904;29;20141;-78
2020/12/19 05:11:15;;;;;;;10.02;7.47;;;15.30;56.90;;;;;;4864834;29;20049;-78
2020/12/19 05:13:43;;;;;;;9.75;7.35;;;15.20;56.90;;;;;;4866011;29;20046;-77
2020/12/19 05:16:10;;;;;;;8.15;7.28;;;15.30;56.90;;;;;;4865428;29;20118;-78
2020/12/19 05:18:56;;;;;;;10.52;6.85;;;15.30;57.00;;;;;;4877604;29;20424;-78
2020/12/19 05:21:24;;;;;;;10.48;6.60;;;15.30;57.20;;;;;;4865834;29;20046;-81
2020/12/19 05:23:50;;;;;;;9.40;6.55;;;15.30;57.40;;;;;;4864640;29;20063;-80
2020/12/19 05:26:37;;;;;;;8.32;6.22;;;15.40;57.60;;;;;;4876872;29;20054;-77
2020/12/19 05:29:23;;;;;;;8.15;5.72;;;15.40;57.80;;;;;;4858643;29;20476;-79
2020/12/19 05:32:09;;;;;;;10.48;5.68;;;15.50;58.00;;;;;;4845871;29;20414;-80
2020/12/19 05:34:39;;;;;;;8.35;4.93;;;15.60;58.00;;;;;;4855539;29;20428;-79
2020/12/19 05:37:10;;;;;;;15.07;5.03;;;15.60;58.00;;;;;;4879263;29;20041;-79
2020/12/19 05:39:36;;;;;;;10.20;4.85;;;15.70;58.20;;;;;;4879111;29;20124;-77
2020/12/19 05:42:01;;;;;;;11.65;4.15;;;15.80;58.20;;;;;;4864556;29;20133;-80
2020/12/19 05:44:27;;;;;;;13.35;4.38;;;15.90;58.20;;;;;;4879107;29;20106;-79
2020/12/19 05:46:53;;;;;;;7.43;4.18;;;16.00;58.40;;;;;;4864809;29;20052;-78
2020/12/19 05:49:21;;;;;;;9.77;4.63;;;16.10;58.60;;;;;;4864369;29;20049;-78
2020/12/19 05:51:49;;;;;;;9.90;4.03;;;16.20;58.70;;;;;;4864976;29;20329;-78
2020/12/19 05:54:18;;;;;;;6.47;4.00;;;16.20;58.90;;;;;;4864201;29;20038;-79
2020/12/19 05:57:04;;;;;;;7.30;3.70;;;16.30;58.90;;;;;;4876395;29;20045;-79
2020/12/19 05:59:30;;;;;;;10.27;3.88;;;16.40;59.00;;;;;;4859854;29;20068;-82
2020/12/19 06:01:57;;;;;;;8.27;3.75;;;16.40;59.20;;;;;;4861670;29;20109;-82
2020/12/19 06:04:44;;;;;;;7.32;3.15;;;16.50;59.30;;;;;;4847291;29;20053;-80
2020/12/19 06:07:11;;;;;;;5.60;3.15;;;16.60;59.20;;;;;;4858945;29;20109;-82
2020/12/19 06:09:56;;;;;;;9.40;3.63;;;16.60;59.10;;;;;;4861952;29;20045;-79
2020/12/19 06:13:10;;;;;;;6.93;3.35;;;16.70;59.10;;;;;;4862360;29;20499;-80
2020/12/19 06:15:54;;;;;;;5.00;3.15;;;16.70;59.30;;;;;;4864156;29;20045;-78
2020/12/19 06:18:55;;;;;;;6.85;4.30;;;16.80;59.30;;;;;;4862993;29;20118;-77
2020/12/19 06:21:22;;;;;;;8.88;3.25;;;16.90;59.70;;;;;;4862692;29;20049;-77
2020/12/19 06:23:48;;;;;;;6.47;3.53;;;17.00;59.30;;;;;;4863663;29;20056;-77
2020/12/19 06:26:36;;;;;;;5.93;3.35;;;17.10;59.30;;;;;;4875962;29;20121;-77
2020/12/19 06:29:03;;;;;;;6.40;3.15;;;17.10;59.20;;;;;;4863960;29;20072;-76
2020/12/19 06:31:29;;;;;;;4.97;3.53;;;17.20;59.10;;;;;;4864281;29;20045;-76
2020/12/19 06:34:19;;;;;;;6.60;2.85;;;17.30;59.20;;;;;;4876102;29;20112;-77
2020/12/19 06:37:08;;;;;;;5.90;2.67;;;17.40;59.20;;;;;;4849522;29;20049;-79
2020/12/19 06:39:34;;;;;;;6.72;2.67;;;17.40;59.20;;;;;;4864103;29;20085;-79
2020/12/19 06:42:00;;;;;;;6.40;3.20;;;17.50;59.50;;;;;;4863614;29;20486;-80
2020/12/19 06:44:26;;;;;;;8.02;3.13;;;17.50;59.40;;;;;;4863962;29;20073;-79
2020/12/19 06:46:53;;;;;;;5.68;3.00;;;17.50;59.40;;;;;;4863841;29;20464;-82
2020/12/19 06:49:24;;;;;;;7.57;2.88;;;17.50;59.30;;;;;;4862986;29;20053;-78
2020/12/19 06:52:10;;;;;;;7.03;3.13;;;17.50;59.30;;;;;;4864164;29;20053;-78
2020/12/19 06:54:41;;;;;;;13.35;3.38;;;17.50;59.30;;;;;;4878551;29;20060;-78
2020/12/19 06:57:28;;;;;;;6.50;2.85;;;17.50;59.10;;;;;;4865450;29;20041;-79
2020/12/19 06:59:55;;;;;;;10.93;3.33;;;17.50;59.10;;;;;;4861735;29;20051;-79
2020/12/19 07:02:58;;;;;;;9.65;3.10;;;17.50;59.30;;;;;;4878912;29;20193;-78
2020/12/19 07:05:33;;;;;;;13.38;3.80;;;17.50;59.40;;;;;;4881705;29;20111;-82
2020/12/19 07:08:21;;;;;;;7.72;3.33;;;17.50;59.40;;;;;;4891531;29;20083;-81
2020/12/19 07:10:48;;;;;;;8.45;3.63;;;17.50;59.30;;;;;;4877166;29;20059;-78
2020/12/19 07:13:14;;;;;;;9.80;3.30;;;17.50;59.30;;;;;;4862790;29;20064;-79
2020/12/19 07:15:43;;;;;;;9.57;3.28;;;17.40;59.20;;;;;;4862996;29;20053;-78
2020/12/19 07:18:33;;;;;;;6.43;3.08;;;17.50;59.30;;;;;;4875064;29;20056;-79
2020/12/19 07:21:19;;;;;;;8.70;3.25;;;17.50;59.30;;;;;;4865472;29;20048;-78
2020/12/19 07:23:45;;;;;;;8.52;3.08;;;17.50;59.30;;;;;;4866581;29;20068;-77
2020/12/19 07:26:10;;;;;;;7.03;3.13;;;17.60;59.30;;;;;;4862317;29;20065;-79
2020/12/19 07:28:36;;;;;;;10.40;2.70;;;17.60;59.20;;;;;;4861946;29;20472;-79
2020/12/19 07:31:22;;;;;;;7.45;3.03;;;17.60;59.10;;;;;;4874578;29;20103;-78
2020/12/19 07:33:49;;;;;;;8.48;3.10;;;17.60;59.00;;;;;;4862196;29;20494;-79
2020/12/19 07:36:18;;;;;;;9.77;3.05;;;17.70;59.10;;;;;;4862171;29;20117;-79
2020/12/19 07:38:44;;;;;;;6.45;2.70;;;17.70;59.00;;;;;;4861990;29;20504;-78
2020/12/19 07:41:10;;;;;;;6.60;3.00;;;17.70;58.90;;;;;;4862009;29;20042;-79
2020/12/19 07:43:36;;;;;;;6.75;3.00;;;17.70;58.80;;;;;;4861858;29;20052;-79
2020/12/19 07:46:01;;;;;;;5.85;2.58;;;17.70;58.70;;;;;;4861646;29;20049;-79
2020/12/19 07:48:27;;;;;;;7.65;3.53;;;17.70;59.30;;;;;;4862190;29;20085;-79
2020/12/19 07:50:54;;;;;;;7.93;3.20;;;17.70;58.70;;;;;;4861588;29;20096;-79
2020/12/19 07:53:19;;;;;;;9.13;3.38;;;17.80;58.70;;;;;;4872682;29;20455;-79
2020/12/19 07:56:05;;;;;;;6.10;2.53;;;17.80;58.60;;;;;;4863507;29;20053;-78
2020/12/19 07:58:35;;;;;;;11.23;3.63;;;17.80;58.70;;;;;;4862335;29;20124;-78
2020/12/19 08:01:21;;;;;;;10.20;2.90;;;17.80;58.70;;;;;;4859014;29;20427;-78
2020/12/19 08:03:59;;;;;;;7.53;3.28;;;17.80;58.70;;;;;;4862472;29;20102;-78
2020/12/19 08:06:42;;;;;;;5.75;3.05;;;17.80;58.70;;;;;;4865774;29;20050;-78
2020/12/19 08:09:07;;;;;;;8.15;3.00;;;17.80;58.60;;;;;;4861739;29;20061;-78
2020/12/19 08:11:43;;;;;;;7.10;2.85;;;17.90;58.60;;;;;;4860993;29;20060;-78
2020/12/19 08:14:09;;;;;;;5.43;2.78;;;17.90;58.60;;;;;;4862377;29;20101;-78
2020/12/19 08:16:55;;;;;;;4.53;2.80;;;17.90;58.50;;;;;;4874291;29;20061;-78
2020/12/19 08:19:35;;;;;;;5.60;2.92;;;17.90;58.50;;;;;;4862180;29;20057;-77
2020/12/19 08:22:04;;;;;;;6.65;2.80;;;17.80;58.40;;;;;;4861551;29;20049;-78
2020/12/19 08:24:30;;;;;;;5.82;2.90;;;17.90;58.50;;;;;;4862022;29;20073;-77
2020/12/19 08:27:28;;;;;;;7.20;3.30;;;17.90;58.50;;;;;;4862015;29;20049;-78
2020/12/19 08:30:17;;;;;;;6.15;3.28;;;17.90;58.50;;;;;;4839336;29;20050;-82
2020/12/19 08:33:07;;;;;;;8.35;3.30;;;17.80;58.60;;;;;;4825278;29;20057;-79
2020/12/19 08:35:53;;;;;;;14.00;3.78;;;17.80;58.70;;;;;;4834136;29;20050;-81
2020/12/19 08:38:22;;;;;;;8.27;3.33;;;17.70;58.60;;;;;;4842954;29;20042;-79
2020/12/19 08:40:50;;;;;;;11.15;3.25;;;17.70;58.60;;;;;;4845005;29;20069;-80
2020/12/19 08:43:16;;;;;;;10.27;3.33;;;17.70;58.70;;;;;;4847034;29;20075;-79
2020/12/19 08:45:47;;;;;;;5.28;2.78;;;17.60;58.50;;;;;;4847039;29;20052;-77
2020/12/19 08:48:22;;;;;;;6.18;3.30;;;17.70;58.60;;;;;;4847019;29;20054;-77
2020/12/19 08:50:50;;;;;;;6.47;2.88;;;17.70;58.50;;;;;;4846318;29;20111;-77
2020/12/19 08:53:17;;;;;;;5.95;2.60;;;17.60;58.50;;;;;;4847136;29;20066;-78
2020/12/19 08:55:44;;;;;;;6.10;3.00;;;17.70;58.50;;;;;;4846869;29;20046;-78
2020/12/19 08:58:31;;;;;;;5.30;2.38;;;17.70;58.50;;;;;;4833108;29;20141;-77
2020/12/19 09:00:59;;;;;;;5.45;2.85;;;17.80;58.50;;;;;;4846785;29;20053;-77
2020/12/19 09:03:29;;;;;;;9.60;2.85;;;17.80;58.40;;;;;;4846305;29;20046;-78
2020/12/19 09:06:06;;;;;;;4.25;2.50;;;17.80;58.40;;;;;;4845729;29;20096;-78
2020/12/19 09:08:40;;;;;;;7.03;2.80;;;17.90;58.50;;;;;;4830110;29;20050;-78
2020/12/19 09:11:09;;;;;;;6.18;2.78;;;17.90;58.40;;;;;;4847107;29;20045;-77
2020/12/19 09:14:05;;;;;;;4.00;2.45;;;17.90;58.30;;;;;;4833202;29;20050;-77
2020/12/19 09:16:31;;;;;;;4.13;2.28;;;17.90;58.30;;;;;;4846414;29;20054;-78
2020/12/19 09:19:18;;;;;;;5.50;3.08;;;18.00;58.20;;;;;;4832791;29;20054;-79
2020/12/19 09:22:01;;;;;;;6.35;3.05;;;18.00;58.20;;;;;;4846499;29;20548;-78
2020/12/19 09:24:27;;;;;;;8.15;2.58;;;17.90;58.10;;;;;;4850515;29;20134;-77
2020/12/19 09:26:53;;;;;;;8.95;2.53;;;17.90;58.20;;;;;;4864331;29;20132;-79
2020/12/19 09:29:19;;;;;;;8.13;2.78;;;17.90;58.10;;;;;;4864876;29;20120;-79
2020/12/19 09:31:45;;;;;;;12.30;2.88;;;17.90;58.20;;;;;;4864710;29;20060;-81
2020/12/19 09:34:31;;;;;;;12.23;3.15;;;17.90;58.40;;;;;;4864247;29;20065;-77
2020/12/19 09:36:56;;;;;;;11.75;2.63;;;17.90;58.40;;;;;;4863787;29;20050;-78
2020/12/19 09:39:22;;;;;;;7.95;2.70;;;17.90;58.40;;;;;;4864605;29;20053;-78
2020/12/19 09:42:08;;;;;;;9.60;3.53;;;17.80;58.50;;;;;;4876503;29;20113;-79
2020/12/19 09:44:34;;;;;;;9.55;3.13;;;17.80;58.70;;;;;;4864390;29;20053;-82
2020/12/19 09:47:03;;;;;;;15.60;4.28;;;17.80;58.70;;;;;;4866954;29;20053;-80
2020/12/19 09:49:28;;;;;;;14.07;3.47;;;17.80;59.10;;;;;;4864339;29;20116;-77
2020/12/19 09:51:54;;;;;;;13.70;3.50;;;17.80;59.10;;;;;;4863265;29;20113;-77
2020/12/19 09:54:20;;;;;;;19.48;4.45;;;17.80;59.10;;;;;;4864136;29;20523;-77
2020/12/19 09:56:46;;;;;;;21.20;4.40;;;17.70;59.10;;;;;;4864395;29;20113;-81
2020/12/19 09:59:12;;;;;;;15.52;6.40;;;17.70;59.20;;;;;;4863558;29;20365;-79
2020/12/19 10:01:58;;;;;;;16.48;6.05;;;17.70;58.00;;;;;;4863827;29;20080;-79
2020/12/19 10:04:23;;;;;;;16.85;5.72;;;17.60;57.30;;;;;;4864795;29;20050;-79
2020/12/19 10:06:52;;;;;;;15.20;5.38;;;17.50;57.50;;;;;;4864768;29;20363;-80
2020/12/19 10:09:18;;;;;;;9.45;4.38;;;17.50;57.60;;;;;;4864619;29;20045;-78
2020/12/19 10:12:04;;;;;;;12.70;4.28;;;17.50;57.60;;;;;;4863363;29;20121;-80
2020/12/19 10:14:30;;;;;;;7.90;3.80;;;17.50;57.50;;;;;;4864245;29;20045;-78
2020/12/19 10:17:17;;;;;;;6.32;3.65;;;17.50;57.40;;;;;;4876488;29;20121;-78
2020/12/19 10:19:43;;;;;;;10.85;3.70;;;17.50;57.30;;;;;;4864392;29;20061;-80
2020/12/19 10:22:09;;;;;;;6.78;3.42;;;17.50;57.30;;;;;;4864940;29;20140;-78
2020/12/19 10:24:35;;;;;;;7.60;3.25;;;17.50;58.00;;;;;;4864169;29;20125;-78
2020/12/19 10:27:00;;;;;;;5.30;3.47;;;17.50;57.30;;;;;;4863918;29;20460;-77
2020/12/19 10:29:46;;;;;;;7.68;3.28;;;17.50;57.40;;;;;;4876418;29;20065;-78
2020/12/19 10:32:12;;;;;;;9.25;3.13;;;17.50;57.40;;;;;;4864304;29;20363;-79
2020/12/19 10:34:39;;;;;;;8.55;3.28;;;17.50;57.40;;;;;;4864089;29;20388;-80
2020/12/19 10:37:26;;;;;;;5.38;3.15;;;17.50;57.40;;;;;;4876280;29;20061;-79
2020/12/19 10:39:52;;;;;;;8.95;2.90;;;17.50;57.50;;;;;;4863985;29;20084;-78
2020/12/19 10:42:37;;;;;;;5.40;3.08;;;17.50;57.50;;;;;;4876013;29;20080;-80
2020/12/19 10:45:04;;;;;;;5.03;2.53;;;17.50;57.60;;;;;;4879988;29;20049;-79
2020/12/19 10:47:30;;;;;;;5.68;2.97;;;17.50;57.60;;;;;;4882318;29;20099;-80
2020/12/19 10:49:56;;;;;;;6.60;3.10;;;17.50;57.70;;;;;;4882083;29;20086;-80
2020/12/19 10:52:21;;;;;;;4.63;2.78;;;17.50;57.80;;;;;;4882057;29;20072;-78
2020/12/19 10:54:48;;;;;;;4.35;2.70;;;17.50;57.90;;;;;;4882409;29;20073;-80
2020/12/19 10:57:35;;;;;;;4.15;2.63;;;17.50;58.00;;;;;;4882132;29;20145;-81
2020/12/19 11:00:06;;;;;;;3.83;2.45;;;17.40;58.00;;;;;;4882315;29;20123;-78
2020/12/19 11:02:52;;;;;;;4.75;2.58;;;17.40;58.00;;;;;;4881502;29;20411;-79
2020/12/19 11:05:18;;;;;;;4.95;2.88;;;17.40;58.00;;;;;;4881779;29;20052;-80
2020/12/19 11:08:03;;;;;;;3.85;2.50;;;17.30;58.00;;;;;;4894111;29;20468;-78
2020/12/19 11:10:29;;;;;;;4.07;2.70;;;17.30;58.00;;;;;;4881977;29;20049;-79
2020/12/19 11:12:55;;;;;;;4.13;2.72;;;17.30;58.10;;;;;;4881652;29;20531;-79
2020/12/19 11:15:41;;;;;;;5.28;2.70;;;17.30;58.00;;;;;;4887928;29;20064;-79
2020/12/19 11:18:06;;;;;;;2.67;2.40;;;17.30;58.10;;;;;;4863139;29;20037;-80
2020/12/19 11:20:52;;;;;;;3.20;2.40;;;17.30;58.10;;;;;;4862959;29;20085;-79
2020/12/19 11:23:18;;;;;;;5.65;2.60;;;17.20;58.10;;;;;;4862825;29;20486;-78
2020/12/19 11:25:44;;;;;;;4.03;2.50;;;17.20;58.10;;;;;;4863031;29;20376;-78
2020/12/19 11:28:29;;;;;;;3.22;2.65;;;17.20;58.10;;;;;;4875078;29;20502;-78
2020/12/19 11:31:16;;;;;;;3.47;2.35;;;17.20;58.00;;;;;;4862284;29;20060;-80
2020/12/19 11:33:42;;;;;;;4.80;2.67;;;17.20;58.00;;;;;;4862940;29;20042;-80
2020/12/19 11:36:08;;;;;;;4.28;2.63;;;17.20;58.10;;;;;;4862884;29;20049;-78
2020/12/19 11:38:37;;;;;;;4.10;2.50;;;17.10;58.00;;;;;;4863169;29;20049;-79
2020/12/19 11:41:03;;;;;;;3.78;2.75;;;17.10;57.90;;;;;;4862972;29;20360;-78
2020/12/19 11:43:49;;;;;;;5.68;2.80;;;17.10;57.90;;;;;;4870878;29;20083;-80
2020/12/19 11:46:15;;;;;;;3.47;2.50;;;17.10;57.90;;;;;;4881118;29;20369;-79
2020/12/19 11:48:41;;;;;;;3.60;2.65;;;17.10;57.90;;;;;;4881311;29;20060;-79
2020/12/19 11:51:06;;;;;;;3.10;2.50;;;17.10;57.90;;;;;;4881401;29;20048;-80
2020/12/19 11:53:32;;;;;;;3.55;2.70;;;17.10;57.90;;;;;;4881352;29;20348;-79
2020/12/19 11:56:00;;;;;;;3.88;2.78;;;17.10;58.00;;;;;;4881434;29;20073;-79
2020/12/19 11:58:27;;;;;;;3.88;2.92;;;17.00;57.90;;;;;;4881089;29;20076;-79
2020/12/19 12:00:52;;;;;;;4.25;3.08;;;17.00;57.90;;;;;;4880201;29;20048;-77
2020/12/19 12:03:18;;;;;;;5.13;3.60;;;17.00;58.00;;;;;;4880746;29;20109;-80
2020/12/19 12:05:45;;;;;;;3.92;2.80;;;17.00;58.00;;;;;;4881192;29;20064;-78
2020/12/19 12:08:11;;;;;;;3.25;2.75;;;17.00;58.10;;;;;;4881133;29;20041;-80
2020/12/19 12:10:56;;;;;;;7.03;3.22;;;17.00;58.10;;;;;;4881139;29;20077;-80
2020/12/19 12:13:22;;;;;;;4.68;2.92;;;17.00;58.10;;;;;;4881112;29;20521;-79
2020/12/19 12:15:48;;;;;;;4.75;2.90;;;17.00;58.20;;;;;;4882823;29;20367;-79
2020/12/19 12:18:14;;;;;;;3.58;2.70;;;16.90;58.10;;;;;;4885109;29;20053;-79
2020/12/19 12:20:39;;;;;;;3.25;2.67;;;16.90;58.10;;;;;;4885230;29;20503;-78
2020/12/19 12:23:05;;;;;;;4.13;2.72;;;16.90;58.10;;;;;;4885546;29;20067;-80
2020/12/19 12:25:51;;;;;;;3.50;2.72;;;16.90;58.20;;;;;;4896781;29;20049;-80
2020/12/19 12:28:37;;;;;;;3.65;2.65;;;16.90;58.30;;;;;;4897052;29;20060;-78
2020/12/19 12:31:24;;;;;;;4.30;2.88;;;16.90;58.30;;;;;;4892528;29;20052;-80
2020/12/19 12:33:51;;;;;;;5.45;3.08;;;16.90;58.30;;;;;;4866119;29;20452;-80
2020/12/19 12:36:37;;;;;;;4.70;2.80;;;16.90;58.30;;;;;;4878662;29;20077;-78
2020/12/19 12:39:03;;;;;;;3.80;2.70;;;16.80;58.30;;;;;;4865908;29;20077;-80
2020/12/19 12:41:29;;;;;;;3.95;2.97;;;16.80;58.30;;;;;;4866128;29;20530;-79
2020/12/19 12:44:15;;;;;;;4.15;2.63;;;16.80;58.30;;;;;;4878021;29;20058;-80
2020/12/19 12:46:41;;;;;;;3.63;3.03;;;16.80;58.40;;;;;;4864660;29;20065;-80
2020/12/19 12:49:06;;;;;;;3.95;3.08;;;16.80;58.40;;;;;;4866965;29;20042;-80
2020/12/19 12:51:32;;;;;;;4.47;3.53;;;16.70;58.30;;;;;;4865992;29;20436;-79
2020/12/19 12:53:58;;;;;;;5.03;2.97;;;16.80;58.40;;;;;;4866035;29;20053;-80
2020/12/19 12:56:44;;;;;;;4.47;2.97;;;16.70;58.40;;;;;;4864627;29;20067;-80
2020/12/19 12:59:10;;;;;;;3.33;2.70;;;16.70;58.40;;;;;;4865031;29;20041;-80
2020/12/19 13:01:56;;;;;;;4.55;3.15;;;16.70;58.40;;;;;;4869350;29;20057;-79
2020/12/19 13:04:42;;;;;;;6.75;3.35;;;16.70;58.40;;;;;;4865105;29;20057;-78
2020/12/19 13:07:09;;;;;;;6.68;2.88;;;16.70;58.50;;;;;;4865107;29;20045;-76
2020/12/19 13:09:35;;;;;;;7.20;3.58;;;16.70;58.60;;;;;;4864795;29;20045;-77
2020/12/19 13:12:01;;;;;;;6.55;3.28;;;16.70;58.90;;;;;;4863661;29;20106;-75